| time (UTC) | temp C | wind direction | speed KPH | gust KPH | rain 1hr cm | rain 24hr cm | rain mn cm | humidity % | barometer mb |
| 20260507022513 | 13 | 290 | 0.0 | 0.0 | 0.00 | 0.00 | 0.00 | 84 | 1018.7 |
| 20260507021507 | 13 | 290 | 0.0 | 0.0 | 0.00 | 0.00 | 0.00 | 83 | 1018.7 |
| 20260507020439 | 13 | 290 | 0.0 | 0.0 | 0.00 | 0.00 | 0.00 | 83 | 1018.7 |
| 20260507015449 | 13 | 290 | 0.0 | 0.0 | 0.00 | 0.00 | 0.00 | 83 | 1018.6 |
| 20260507014502 | 13 | 290 | 0.0 | 0.0 | 0.00 | 0.00 | 0.00 | 83 | 1018.5 |
| 20260507013523 | 13 | 290 | 0.0 | 0.0 | 0.00 | 0.00 | 0.00 | 83 | 1018.6 |
| 20260507012529 | 13 | 290 | 0.0 | 0.0 | 0.00 | 0.00 | 0.00 | 84 | 1018.6 |
| 20260507011547 | 13 | 290 | 0.0 | 0.0 | 0.00 | 0.00 | 0.00 | 85 | 1018.6 |
| 20260507010549 | 12 | 290 | 0.0 | 0.0 | 0.00 | 0.00 | 0.00 | 85 | 1018.7 |
| 20260507005613 | 13 | 291 | 0.0 | 0.0 | 0.00 | 0.00 | 0.00 | 84 | 1018.7 |
| 20260507004625 | 13 | 290 | 0.0 | 0.0 | 0.00 | 0.00 | 0.00 | 84 | 1018.8 |
| 20260507003616 | 13 | 293 | 0.0 | 0.0 | 0.00 | 0.00 | 0.00 | 84 | 1018.7 |
| 20260507002640 | 13 | 296 | 0.0 | 0.0 | 0.00 | 0.00 | 0.00 | 83 | 1018.7 |
| 20260507000505 | 13 | 298 | 0.0 | 0.0 | 0.00 | 0.00 | 0.00 | 83 | 1018.6 |
| 20260506235519 | 13 | 298 | 0.0 | 0.0 | 0.00 | 0.00 | 0.00 | 84 | 1018.6 |
| 20260506234521 | 13 | 298 | 0.0 | 0.0 | 0.00 | 0.00 | 0.00 | 84 | 1018.7 |
| 20260506233502 | 13 | 298 | 0.0 | 0.0 | 0.00 | 0.00 | 0.00 | 84 | 1018.7 |
| 20260506231350 | 13 | 298 | 0.0 | 0.0 | 0.00 | 0.00 | 0.00 | 84 | 1018.8 |
| 20260506225243 | 12 | 296 | 0.0 | 3.2 | 0.00 | 0.00 | 0.00 | 85 | 1018.8 |
| 20260506224230 | 12 | 295 | 0.0 | 0.0 | 0.00 | 0.00 | 0.00 | 85 | 1018.8 |
| 20260506223234 | 12 | 295 | 0.0 | 0.0 | 0.00 | 0.00 | 0.00 | 85 | 1018.9 |
| 20260506222245 | 13 | 295 | 0.0 | 0.0 | 0.00 | 0.00 | 0.00 | 85 | 1018.9 |
| 20260506221214 | 12 | 295 | 0.0 | 0.0 | 0.00 | 0.00 | 0.00 | 85 | 1018.9 |
| 20260506220231 | 12 | 294 | 0.0 | 3.2 | 0.00 | 0.00 | 0.00 | 85 | 1019.0 |
| 20260506215205 | 12 | 283 | 0.0 | 0.0 | 0.00 | 0.00 | 0.00 | 86 | 1019.0 |
| 20260506214220 | 12 | 279 | 0.0 | 0.0 | 0.00 | 0.00 | 0.00 | 86 | 1019.1 |
| 20260506213241 | 12 | 288 | 0.0 | 0.0 | 0.00 | 0.00 | 0.00 | 86 | 1019.1 |
| 20260506211124 | 12 | 317 | 0.0 | 0.0 | 0.00 | 0.00 | 0.00 | 85 | 1019.0 |
| 20260506210121 | 12 | 323 | 0.0 | 0.0 | 0.00 | 0.00 | 0.00 | 86 | 1019.0 |
| 20260506203944 | 13 | 225 | 0.0 | 3.2 | 0.00 | 0.00 | 0.00 | 80 | 1018.9 |
| 20260506202916 | 13 | 232 | 0.0 | 8.0 | 0.00 | 0.00 | 0.00 | 79 | 1018.8 |
| 20260506201842 | 13 | 206 | 0.0 | 4.8 | 0.00 | 0.00 | 0.00 | 81 | 1018.8 |
| 20260506200835 | 13 | 191 | 0.0 | 8.0 | 0.00 | 0.00 | 0.00 | 81 | 1018.7 |
| 20260506195845 | 13 | 224 | 1.6 | 8.0 | 0.00 | 0.00 | 0.00 | 82 | 1018.7 |
| 20260506194838 | 13 | 174 | 1.6 | 9.7 | 0.00 | 0.00 | 0.00 | 82 | 1018.8 |
| 20260506193903 | 13 | 222 | 3.2 | 9.7 | 0.00 | 0.00 | 0.00 | 81 | 1018.6 |
| 20260506192859 | 13 | 225 | 1.6 | 4.8 | 0.00 | 0.00 | 0.00 | 82 | 1018.6 |
| 20260506191840 | 13 | 201 | 0.0 | 3.2 | 0.00 | 0.00 | 0.00 | 83 | 1018.6 |
| 20260506190857 | 12 | 228 | 1.6 | 9.7 | 0.00 | 0.00 | 0.00 | 83 | 1018.6 |
| 20260506185906 | 12 | 200 | 1.6 | 8.0 | 0.00 | 0.00 | 0.00 | 82 | 1018.5 |
| 20260506184856 | 13 | 184 | 1.6 | 9.7 | 0.00 | 0.00 | 0.00 | 82 | 1018.4 |
| 20260506183841 | 13 | 159 | 1.6 | 9.7 | 0.00 | 0.00 | 0.00 | 81 | 1018.4 |
| 20260506181752 | 13 | 190 | 0.0 | 1.6 | 0.00 | 0.00 | 0.00 | 83 | 1018.3 |
| 20260506175612 | 12 | 219 | 3.2 | 16.1 | 0.00 | 0.00 | 0.00 | 85 | 1018.4 |
| 20260506174553 | 12 | 208 | 3.2 | 16.1 | 0.00 | 0.00 | 0.00 | 84 | 1017.5 |
| 20260506173543 | 12 | 194 | 1.6 | 9.7 | 0.00 | 0.00 | 0.00 | 84 | 1018.2 |
| 20260506172508 | 12 | 226 | 1.6 | 9.7 | 0.00 | 0.00 | 0.00 | 85 | 1017.9 |
| 20260506171511 | 12 | 220 | 1.6 | 6.4 | 0.00 | 0.00 | 0.00 | 85 | 1017.8 |
| 20260506165407 | 12 | 181 | 1.6 | 9.7 | 0.00 | 0.00 | 0.00 | 85 | 1017.7 |
| 20260506164344 | 12 | 167 | 1.6 | 9.7 | 0.00 | 0.00 | 0.00 | 85 | 1017.9 |
| 20260506163323 | 12 | 176 | 1.6 | 6.4 | 0.00 | 0.00 | 0.00 | 85 | 1017.9 |
| 20260506162332 | 12 | 218 | 0.0 | 1.6 | 0.00 | 0.00 | 0.00 | 85 | 1018.2 |
| 20260506160142 | 12 | 194 | 0.0 | 6.4 | 0.00 | 0.00 | 0.00 | 86 | 1017.9 |
| 20260506155205 | 12 | 226 | 1.6 | 9.7 | 0.00 | 0.00 | 0.00 | 87 | 1017.8 |
| 20260506154159 | 12 | 159 | 1.6 | 9.7 | 0.00 | 0.00 | 0.00 | 87 | 1017.5 |
| 20260506153209 | 12 | 213 | 1.6 | 9.7 | 0.00 | 0.00 | 0.00 | 87 | 1017.5 |
| 20260506152145 | 12 | 177 | 0.0 | 12.9 | 0.00 | 0.00 | 0.00 | 88 | 1017.4 |
| 20260506151144 | 12 | 184 | 0.0 | 9.7 | 0.00 | 0.00 | 0.00 | 88 | 1017.5 |
| 20260506150110 | 12 | 180 | 0.0 | 4.8 | 0.00 | 0.00 | 0.00 | 88 | 1017.6 |
| 20260506145123 | 12 | 190 | 0.0 | 77.2 | 0.00 | 0.00 | 0.00 | 88 | 1017.6 |
| 20260506144106 | 12 | 180 | 0.0 | 3.2 | 0.00 | 0.00 | 0.00 | 88 | 1017.8 |
| 20260506143123 | 11 | 175 | 0.0 | 3.2 | 0.00 | 0.00 | 0.00 | 88 | 1017.4 |
| 20260506135813 | 11 | 233 | 1.6 | 12.9 | 0.00 | 0.00 | 0.00 | 89 | 1017.4 |
| 20260506132532 | 11 | 184 | 11.3 | 117.5 | 0.00 | 0.00 | 0.00 | 89 | 1017.3 |
| 20260506131544 | 11 | 225 | 56.3 | 210.8 | 0.00 | 0.00 | 0.00 | 89 | 1017.4 |
| 20260506130609 | 11 | 221 | 29.0 | 88.5 | 0.00 | 0.00 | 0.00 | 90 | 1017.0 |
| 20260506124444 | 11 | 197 | 1.6 | 37.0 | 0.00 | 0.00 | 0.00 | 91 | 1016.9 |
| 20260506123420 | 11 | 175 | 0.0 | 0.0 | 0.00 | 0.00 | 0.00 | 91 | 1016.9 |
| 20260506121320 | 11 | 218 | 0.0 | 0.0 | 0.00 | 0.00 | 0.00 | 91 | 1016.9 |
| 20260506120306 | 11 | 218 | 0.0 | 0.0 | 0.00 | 0.00 | 0.00 | 92 | 1016.8 |
| 20260506115252 | 11 | 218 | 0.0 | 0.0 | 0.00 | 0.00 | 0.00 | 92 | 1016.8 |
| 20260506114245 | 11 | 230 | 0.0 | 16.1 | 0.00 | 0.00 | 0.00 | 93 | 1016.8 |
| 20260506113233 | 10 | 241 | 0.0 | 0.0 | 0.00 | 0.00 | 0.00 | 93 | 1016.6 |
| 20260506112235 | 10 | 242 | 0.0 | 0.0 | 0.00 | 0.00 | 0.00 | 93 | 1016.5 |
| 20260506111247 | 10 | 242 | 0.0 | 0.0 | 0.00 | 0.00 | 0.00 | 93 | 1016.5 |
| 20260506110247 | 10 | 242 | 0.0 | 0.0 | 0.00 | 0.00 | 0.00 | 94 | 1016.4 |
| 20260506105305 | 10 | 242 | 0.0 | 0.0 | 0.00 | 0.00 | 0.00 | 94 | 1016.3 |
| 20260506104254 | 10 | 242 | 0.0 | 0.0 | 0.00 | 0.00 | 0.00 | 93 | 1016.1 |
| 20260506103302 | 10 | 242 | 0.0 | 0.0 | 0.00 | 0.00 | 0.00 | 93 | 1016.1 |
| 20260506102311 | 9 | 242 | 0.0 | 0.0 | 0.00 | 0.00 | 0.00 | 93 | 1016.1 |
| 20260506101335 | 9 | 242 | 0.0 | 0.0 | 0.00 | 0.00 | 0.00 | 94 | 1016.1 |
| 20260506095306 | 8 | 242 | 0.0 | 0.0 | 0.00 | 0.00 | 0.00 | 93 | 1016.0 |
| 20260506094233 | 8 | 242 | 0.0 | 0.0 | 0.00 | 0.00 | 0.00 | 93 | 1015.9 |
| 20260506093229 | 8 | 242 | 0.0 | 0.0 | 0.00 | 0.00 | 0.00 | 93 | 1015.7 |
| 20260506091119 | 8 | 242 | 0.0 | 0.0 | 0.00 | 0.00 | 0.00 | 93 | 1015.7 |
| 20260506085045 | 8 | 242 | 0.0 | 0.0 | 0.00 | 0.00 | 0.00 | 93 | 1015.7 |
| 20260506082920 | 8 | 242 | 0.0 | 0.0 | 0.00 | 0.00 | 0.00 | 92 | 1015.5 |
| 20260506081922 | 9 | 242 | 0.0 | 0.0 | 0.00 | 0.00 | 0.00 | 92 | 1015.5 |
| 20260506080943 | 9 | 242 | 0.0 | 0.0 | 0.00 | 0.00 | 0.00 | 92 | 1015.3 |
| 20260506071705 | 9 | 242 | 0.0 | 0.0 | 0.00 | 0.00 | 0.00 | 92 | 1015.0 |
| 20260506061248 | 10 | 242 | 0.0 | 0.0 | 0.00 | 0.00 | 0.00 | 90 | 1014.6 |
| 20260506060300 | 10 | 242 | 0.0 | 0.0 | 0.00 | 0.00 | 0.00 | 90 | 1014.6 |
| 20260506051134 | 11 | 242 | 0.0 | 0.0 | 0.00 | 0.00 | 0.00 | 89 | 1014.1 |
| 20260506044919 | 11 | 242 | 0.0 | 0.0 | 0.00 | 0.00 | 0.00 | 88 | 1013.8 |
| 20260506043936 | 11 | 242 | 0.0 | 0.0 | 0.00 | 0.00 | 0.00 | 88 | 1013.8 |
| 20260506041835 | 11 | 242 | 0.0 | 0.0 | 0.00 | 0.00 | 0.00 | 87 | 1013.6 |
| 20260506040855 | 12 | 242 | 0.0 | 0.0 | 0.00 | 0.00 | 0.00 | 86 | 1013.5 |
| 20260506035842 | 12 | 242 | 0.0 | 0.0 | 0.00 | 0.00 | 0.00 | 86 | 1013.5 |
| 20260506034835 | 12 | 242 | 0.0 | 0.0 | 0.00 | 0.00 | 0.00 | 84 | 1013.4 |
| 20260506033814 | 12 | 242 | 0.0 | 0.0 | 0.00 | 0.00 | 0.00 | 83 | 1013.3 |
| 20260506032818 | 13 | 242 | 0.0 | 0.0 | 0.00 | 0.00 | 0.00 | 83 | 1013.3 |
| 20260506031838 | 13 | 242 | 0.0 | 0.0 | 0.00 | 0.00 | 0.00 | 82 | 1013.3 |
| 20260506030810 | 13 | 242 | 0.0 | 0.0 | 0.00 | 0.00 | 0.00 | 80 | 1013.3 |
| 20260506025740 | 14 | 242 | 0.0 | 0.0 | 0.00 | 0.00 | 0.00 | 79 | 1013.3 |
| 20260506024751 | 15 | 242 | 0.0 | 1.6 | 0.00 | 0.00 | 0.00 | 78 | 1013.2 |
| 20260506023756 | 15 | 242 | 0.0 | 0.0 | 0.00 | 0.00 | 0.00 | 78 | 1013.1 |